Impacts METAR Board
IDs:

KPHX - Phoenix/Sky Harbor, AZ, US

Updated at: 1100 UTC 24 Jan 2021
Potential Impact None Slight Moderate High
Time 23/23Z 24/00Z 24/01Z 24/02Z 24/03Z 24/04Z 24/05Z 24/06Z 24/07Z 24/08Z 24/09Z 24/10Z 24/11Z
Temp61 62 56 56 55 56 54 54 52 53 53 53 53
Dewpt44 44 46 47 47 47 47 44 43 42 41 42 41
Altim29.82 29.81 29.82 29.82 29.82 29.82 29.81 29.82 29.81 29.81 29.81 29.82 29.80
VIS10 10 8 10 10 10 10 10 10 10 10 10 10
CIG70 43 47 95 95 65 70 170 -- 90 50 100 85
CoverBKNBKNBKNBKNBKNBKNBKNBKNSCTBKNOVCBKNBKN
FltCatVFRVFRVFRVFRVFRVFRVFRVFRVFRVFRVFRVFRVFR
WX--------------------------
WDir02303003100201601300170170180270
WSpd4 6 7 3 0 3 3 3 0 5 6 6 4
WGst-- -- -- -- -- -- -- -- -- -- -- -- --
Raw hourly METARs
KPHX 232251Z VRB04KT 10SM SCT055 BKN070 BKN270 16/07 A2982 RMK AO2 SLP089 T01610067 $
KPHX 232351Z 23006KT 10SM BKN043 BKN050 BKN100 BKN270 17/07 A2981 RMK AO2 SLP087 T01670067 10178 20150 56009 $
KPHX 240051Z 30007KT 8SM SCT040 BKN047 BKN095 BKN270 13/08 A2982 RMK AO2 WSHFT 0034 RAB36E50 SLP092 P0001 T01330078 $
KPHX 240151Z 31003KT 10SM FEW044 SCT070 BKN095 BKN270 13/08 A2982 RMK AO2 LTG DSNT N SLP090 OCNL LTGIC DSNT NW CB DSNT NW T01330083 $
KPHX 240251Z 00000KT 10SM FEW044 SCT070 BKN095 BKN270 13/08 A2982 RMK AO2 SLP092 OCNL LTGIC DSNT NW CB DSNT NW 60001 T01280083 51002 $
KPHX 240351Z 02003KT 10SM FEW045 BKN065 13/08 A2982 RMK AO2 SLP090 T01330083 $
KPHX 240451Z 16003KT 10SM SCT055 BKN070 12/08 A2981 RMK AO2 SLP090 T01220083 $
KPHX 240551Z 13003KT 10SM SCT070 BKN170 12/07 A2982 RMK AO2 SLP091 60001 T01220067 10167 20122 53000 $
KPHX 240651Z 00000KT 10SM SCT070 SCT170 11/06 A2981 RMK AO2 SLP089 T01110061 401780111 $
KPHX 240751Z 17005KT 10SM SCT031 SCT041 BKN090 BKN170 12/06 A2981 RMK AO2 SLP087 T01170056 $
KPHX 240851Z 17006KT 10SM SCT041 BKN050 OVC100 12/05 A2981 RMK AO2 SLP086 T01170050 56004 $
KPHX 240951Z 18006KT 10SM SCT070 BKN100 BKN170 12/06 A2982 RMK AO2 SLP089 T01170056 $
KPHX 241051Z 27004KT 10SM BKN085 12/05 A2980 RMK AO2 SLP085 T01170050 $



Page loaded:  11:22 UTC  |   03:22 AM Pacific  |   04:22 AM Mountain  |   05:22 AM Central  |   06:22 AM Eastern

 

ADVISORIES

FORECASTS

FORECASTS

OBSERVATIONS

USER TOOLS

ABOUT US